HBA weather

Hobart International Airport
Hobart, Tasmania, Australia

Public forecast

Using degrees Celsius for public forecast. Weather courtesy of forecast.io.

METAR (pilot weather report)

Retrieved 2017/10/19 05:30 UTC (30 minutes ago):

YMHB 190530Z 17021KT 9999 FEW006 SCT040 BKN050 16/13 Q1007 RF00.0/001.6

TAF (pilot weather forecast)

Forecast is more than 12 hours old.

Retrieved 2017/10/18 00:36 UTC (1 day ago):

TAF YMHB 182329Z 1900/1924 34012KT 9999 -RA BKN070 FM190300 27012KT 9999 -SHRA FEW005 SCT025 FM190500 16012KT 9999 -SHRA FEW005 BKN025 FM191000 31008KT 9999 FEW045 FM192200 24012KT 9999 SCT030